Plattsmouth, Nebraska
Current Conditions -  °F | °C
As of 4:15 AM on Thursday 29 Jan 2015 (Local Time) from KPMV Reporting Station
Overcast Overcast  
Wind Chill: 23°   Ceiling: 2000
Heat Index: 36°   Visibility: 10mi
Dew Point: 28°   Wind: 29mph
Humidity: 72%   Direction: 330°NNW
Pressure: 30.13"   Gusts: 39mph
Location:  41.01°N, 95.88°W
Report Text: KPMV 291015Z AUTO 33025G34KT 10SM OVC020 02/M02 A3013 RMK AO2 T00201025
Loading
Personal Weather Stations






























Interactive Weather Map New forecast layout! Learn more

10-Day Weather Forecast

Advertisements
Track Severe Weather on mobile